createdAt,value
2022-12-17T00:04:45.154Z,-22.7
2022-12-17T00:10:05.080Z,-23.6
2022-12-17T00:15:24.522Z,-23.5
2022-12-17T00:20:43.600Z,-22.7
2022-12-17T00:32:37.194Z,-22.3
2022-12-17T00:36:43.464Z,-22.5
2022-12-17T00:47:22.864Z,-22.5
2022-12-17T00:52:41.873Z,-22.7
2022-12-17T00:58:01.097Z,-22.5
2022-12-17T01:03:20.886Z,-22.8
2022-12-17T01:08:40.551Z,-23.1
2022-12-17T01:13:58.823Z,-22.5
2022-12-17T01:19:17.870Z,-22.2
2022-12-17T01:29:57.058Z,-22.3
2022-12-17T01:35:16.791Z,-22.8
2022-12-17T01:40:36.635Z,-22.4
2022-12-17T01:45:56.040Z,-26.6
2022-12-17T01:51:15.472Z,-22.8
2022-12-17T01:56:35.012Z,-23
2022-12-17T02:01:54.341Z,-22.6
2022-12-17T02:07:13.625Z,-22.5
2022-12-17T02:12:32.930Z,-22.6
2022-12-17T02:17:52.219Z,-22.6
2022-12-17T02:23:11.325Z,-22.9
2022-12-17T02:28:30.786Z,-24.5
2022-12-17T02:39:09.786Z,-22.9
2022-12-17T02:44:29.538Z,-27.9
2022-12-17T02:55:08.562Z,-26.5
2022-12-17T03:00:27.898Z,-23.9
2022-12-17T03:05:47.080Z,-22.7
2022-12-17T03:11:06.347Z,-22.5
2022-12-17T03:16:25.748Z,-24.2
2022-12-17T03:21:44.745Z,-23.9
2022-12-17T03:32:23.175Z,-22.9
2022-12-17T03:37:42.761Z,-22.4
2022-12-17T03:43:02.647Z,-22.7
2022-12-17T03:48:21.753Z,-22.9
2022-12-17T03:53:40.839Z,-22.6
2022-12-17T03:59:00.534Z,-23.8
2022-12-17T04:04:20.310Z,-22.8
2022-12-17T04:09:40.058Z,-23
2022-12-17T04:14:59.358Z,-22.8
2022-12-17T04:20:18.786Z,-23.8
2022-12-17T04:25:38.712Z,-22.2
2022-12-17T04:30:58.219Z,-22.9
2022-12-17T04:36:18.043Z,-22.7
2022-12-17T04:41:37.678Z,-22.6
2022-12-17T04:46:57.128Z,-22.8
2022-12-17T04:52:16.592Z,-22.9
2022-12-17T04:57:35.703Z,-22
2022-12-17T05:02:55.656Z,-22.7
2022-12-17T05:08:14.858Z,-23.1
2022-12-17T05:13:34.557Z,-22.4
2022-12-17T05:24:13.124Z,-22.9
2022-12-17T05:29:32.862Z,-27.1
2022-12-17T05:40:12.776Z,-23.1
2022-12-17T05:45:31.362Z,-23.2
2022-12-17T05:56:10.370Z,-23.1
2022-12-17T06:01:29.635Z,-22.4
2022-12-17T06:06:48.751Z,-24
2022-12-17T06:12:08.059Z,-22.8
2022-12-17T06:22:47.034Z,-22.6
2022-12-17T06:29:21.269Z,-27.1
2022-12-17T06:33:27.040Z,-23.4
2022-12-17T06:38:44.894Z,-22.6
2022-12-17T06:44:04.571Z,-22.8
2022-12-17T06:49:24.030Z,-22.5
2022-12-17T06:54:43.707Z,-22.7
2022-12-17T07:00:03.123Z,-28.6
2022-12-17T07:05:22.864Z,-23.3
2022-12-17T07:10:42.281Z,-21.9
2022-12-17T07:21:21.124Z,-18.1
2022-12-17T07:31:59.588Z,-3.7
2022-12-17T07:37:20.554Z,14.1
2022-12-17T07:47:57.297Z,40.4
2022-12-17T07:53:16.747Z,56.3
2022-12-17T07:58:35.826Z,72.1
2022-12-17T08:04:04.124Z,87.9
2022-12-17T08:14:34.370Z,120.1
2022-12-17T08:19:53.728Z,132.8
2022-12-17T08:25:13.311Z,153.5
2022-12-17T08:30:32.808Z,170.4
2022-12-17T08:35:52.223Z,184.5
2022-12-17T08:41:12.111Z,198
2022-12-17T08:46:31.554Z,213.9
2022-12-17T08:53:05.657Z,228.3
2022-12-17T08:57:11.584Z,242.8
2022-12-17T09:02:30.667Z,258.9
2022-12-17T09:13:09.698Z,291.6
2022-12-17T09:23:48.063Z,-324.46
2022-12-17T09:29:07.273Z,-313.76
2022-12-17T09:34:26.503Z,-301.96
2022-12-17T09:39:45.736Z,-290.56
2022-12-17T09:45:05.159Z,-279.66
2022-12-17T09:55:43.480Z,-258.46
2022-12-17T10:01:02.913Z,-248.86
2022-12-17T10:06:22.606Z,-238.96
2022-12-17T10:17:00.864Z,-222.46
2022-12-17T10:22:20.194Z,-214.46
2022-12-17T10:32:58.716Z,-199.16
2022-12-17T10:38:17.837Z,-191.86
2022-12-17T10:48:56.480Z,-185.06
2022-12-17T10:54:15.740Z,-176.36
2022-12-17T10:59:35.434Z,-172.16
2022-12-17T11:04:54.691Z,-170.86
2022-12-17T11:18:47.514Z,-167.96
2022-12-17T11:20:53.362Z,-164.56
2022-12-17T11:31:32.378Z,-162.56
2022-12-17T11:42:11.532Z,-163.06
2022-12-17T11:47:30.026Z,-168.26
2022-12-17T11:52:48.807Z,-174.46
2022-12-17T11:58:07.184Z,-173.56
2022-12-17T12:03:26.280Z,-177.66
2022-12-17T12:14:04.921Z,-186.86
2022-12-17T12:19:50.311Z,-190.86
2022-12-17T12:30:28.570Z,-199.96
2022-12-17T12:35:47.506Z,-207.36
2022-12-17T12:41:06.733Z,-214.56
2022-12-17T12:46:26.453Z,-220.76
2022-12-17T12:57:04.506Z,-240.96
2022-12-17T13:02:24.223Z,-250.86
2022-12-17T13:07:43.766Z,-260.76
2022-12-17T13:13:03.192Z,-268.96
2022-12-17T13:18:22.589Z,-279.96
2022-12-17T13:29:01.320Z,-303.36
2022-12-17T13:34:20.457Z,-315.76
2022-12-17T13:39:40.437Z,325.4
2022-12-17T13:44:59.746Z,310.7
2022-12-17T13:55:38.251Z,273.4
2022-12-17T14:00:58.093Z,261.9
2022-12-17T14:11:36.541Z,226.4
2022-12-17T14:16:55.420Z,208.7
2022-12-17T14:27:34.024Z,170.3
2022-12-17T14:32:53.493Z,149.3
2022-12-17T14:38:26.055Z,128.3
2022-12-17T14:43:32.082Z,107.2
2022-12-17T14:54:10.548Z,59.9
2022-12-17T14:59:29.600Z,35.59
2022-12-17T15:04:49.001Z,-14.3
2022-12-17T15:10:08.126Z,-16.6
2022-12-17T15:20:46.188Z,-22.9
2022-12-17T15:26:05.991Z,-24.7
2022-12-17T15:36:44.098Z,-24.8
2022-12-17T15:42:03.715Z,-23
2022-12-17T15:52:41.889Z,-23.4
2022-12-17T15:58:00.911Z,-23.5
2022-12-17T16:03:20.652Z,-23.3
2022-12-17T16:08:40.178Z,-23.7
2022-12-17T16:19:18.918Z,-23.8
2022-12-17T16:24:38.396Z,-23.3
2022-12-17T16:29:57.382Z,-23.8
2022-12-17T16:35:16.649Z,-22.8
2022-12-17T16:40:35.823Z,-23.3
2022-12-17T16:45:55.453Z,-23.1
2022-12-17T16:56:39.610Z,-23.4
2022-12-17T17:01:53.463Z,-23.4
2022-12-17T17:07:12.670Z,-23.5
2022-12-17T17:12:32.597Z,-23.4
2022-12-17T17:23:11.261Z,-23.5
2022-12-17T17:28:30.646Z,-23.4
2022-12-17T17:39:08.583Z,-23.7
2022-12-17T17:44:27.520Z,-22.7
2022-12-17T17:49:47.223Z,-23
2022-12-17T17:55:07.018Z,-22.6
2022-12-17T18:05:45.022Z,-23.1
2022-12-17T18:11:04.603Z,-23.7
2022-12-17T18:21:43.206Z,-23.5
2022-12-17T18:27:03.045Z,-23.1
2022-12-17T18:32:22.395Z,-23.5
2022-12-17T18:37:42.106Z,-22.6
2022-12-17T18:43:01.579Z,-23.8
2022-12-17T18:48:21.269Z,-22.9
2022-12-17T18:53:40.188Z,-23.3
2022-12-17T19:04:18.059Z,-22.8
2022-12-17T19:09:37.886Z,-23.4
2022-12-17T19:14:57.458Z,-23.5
2022-12-17T19:20:16.858Z,-22.6
2022-12-17T19:25:35.758Z,-22.4
2022-12-17T19:30:55.029Z,-22.5
2022-12-17T19:46:55.299Z,-23.5
2022-12-17T19:52:14.504Z,-23.2
2022-12-17T19:57:32.806Z,-23.6
2022-12-17T20:02:52.195Z,-22.8
2022-12-17T20:08:11.089Z,-23
2022-12-17T20:13:30.086Z,-22.8
2022-12-17T20:18:49.259Z,-22.7
2022-12-17T20:29:27.797Z,-22.9
2022-12-17T20:34:46.997Z,-23
2022-12-17T20:40:06.751Z,-22.8
2022-12-17T20:45:26.496Z,-23.6
2022-12-17T20:56:05.468Z,-22.7
2022-12-17T21:01:25.319Z,-24.4
2022-12-17T21:12:03.279Z,-22.6
2022-12-17T21:22:42.071Z,-22.8
2022-12-17T21:28:01.697Z,-25
2022-12-17T21:38:40.205Z,-22.5
2022-12-17T21:43:59.808Z,-23.5
2022-12-17T21:54:38.436Z,-23.4
2022-12-17T21:59:58.562Z,-22.9
2022-12-17T22:05:18.017Z,-23
2022-12-17T22:10:40.621Z,-23
2022-12-17T22:21:16.463Z,-22.7
2022-12-17T22:26:35.855Z,-23.2
2022-12-17T22:31:55.212Z,-22.8
2022-12-17T22:39:18.492Z,-26.8
2022-12-17T22:44:33.155Z,-22.9
2022-12-17T22:47:54.511Z,-22.9
2022-12-17T22:53:14.117Z,-23.5
2022-12-17T23:03:52.885Z,-22.2
2022-12-17T23:09:11.742Z,-22.7
2022-12-17T23:14:30.821Z,-23.8
2022-12-17T23:19:50.254Z,-24
2022-12-17T23:30:28.143Z,-23.5
2022-12-17T23:35:47.097Z,-23.2
2022-12-17T23:41:06.646Z,-23.7
2022-12-17T23:46:26.652Z,-23.1
2022-12-17T23:57:04.663Z,-22.8
